Terminal Aerodrome Forecast
Issued by NWS

Home | Current Version | Previous Version | Text Only | Print | Product List | Glossary On
Versions: 1 2 3 4 5 6 7 8 9 10 11 12 13 14
000
FTUS45 KTWC 310520
TAFOLS
TAF
KOLS 310520Z 3106/0106 VRB04KT P6SM SKC
     FM311900 24010G16KT P6SM SCT120 BKN140
     FM010300 20006KT P6SM BKN140=

USA.gov is the U.S. government's official web portal to all federal, state and local government web resources and services.